createdAt,value
2017-10-04T00:01:01.855Z,101687
2017-10-04T00:03:30.177Z,101682
2017-10-04T00:05:58.427Z,101688
2017-10-04T00:08:26.651Z,101695
2017-10-04T00:10:55.700Z,101689
2017-10-04T00:13:23.958Z,101684
2017-10-04T00:15:52.205Z,101680
2017-10-04T00:18:20.796Z,101682
2017-10-04T00:20:49.045Z,101682
2017-10-04T00:23:17.323Z,101681
2017-10-04T00:25:45.612Z,101681
2017-10-04T00:28:13.901Z,101675
2017-10-04T00:30:42.226Z,101673
2017-10-04T00:33:10.524Z,101676
2017-10-04T00:35:38.816Z,101677
2017-10-04T00:38:07.821Z,101683
2017-10-04T00:40:36.346Z,101682
2017-10-04T00:43:04.618Z,101682
2017-10-04T00:45:32.836Z,101680
2017-10-04T00:48:01.482Z,101674
2017-10-04T00:50:29.797Z,101679
2017-10-04T00:52:58.881Z,101670
2017-10-04T00:55:27.116Z,101670
2017-10-04T00:57:55.399Z,101677
2017-10-04T01:00:23.959Z,101670
2017-10-04T01:02:52.220Z,101664
2017-10-04T01:05:20.436Z,101671
2017-10-04T01:07:48.641Z,101666
2017-10-04T01:10:17.667Z,101673
2017-10-04T01:12:45.887Z,101667
2017-10-04T01:15:14.087Z,101663
2017-10-04T01:17:44.088Z,101672
2017-10-04T01:20:14.304Z,101673
2017-10-04T01:22:42.602Z,101670
2017-10-04T01:25:11.562Z,101663
2017-10-04T01:27:39.917Z,101661
2017-10-04T01:30:08.198Z,101652
2017-10-04T01:32:36.394Z,101636
2017-10-04T01:35:04.630Z,101646
2017-10-04T01:37:33.965Z,101636
2017-10-04T01:40:02.147Z,101655
2017-10-04T01:42:30.359Z,101653
2017-10-04T01:44:58.556Z,101661
2017-10-04T01:47:26.823Z,101676
2017-10-04T01:49:55.390Z,101675
2017-10-04T01:52:23.605Z,101667
2017-10-04T01:54:51.804Z,101673
2017-10-04T01:57:20.743Z,101669
2017-10-04T01:59:48.947Z,101678
2017-10-04T02:02:17.130Z,101659
2017-10-04T02:04:45.355Z,101656
2017-10-04T02:07:13.551Z,101656
2017-10-04T02:09:41.733Z,101671
2017-10-04T02:12:09.930Z,101664
2017-10-04T02:14:38.132Z,101647
2017-10-04T02:17:06.318Z,101655
2017-10-04T02:19:34.495Z,101649
2017-10-04T02:22:02.768Z,101651
2017-10-04T02:24:31.006Z,101641
2017-10-04T02:26:59.963Z,101640
2017-10-04T02:29:28.169Z,101645
2017-10-04T02:31:57.513Z,101650
2017-10-04T02:34:25.722Z,101643
2017-10-04T02:36:53.940Z,101638
2017-10-04T02:39:22.156Z,101660
2017-10-04T02:41:50.401Z,101660
2017-10-04T02:44:18.600Z,101651
2017-10-04T02:46:46.926Z,101657
2017-10-04T02:49:15.531Z,101654
2017-10-04T02:51:43.779Z,101660
2017-10-04T02:54:12.034Z,101661
2017-10-04T02:56:40.231Z,101655
2017-10-04T02:59:09.243Z,101640
2017-10-04T03:01:37.442Z,101639
2017-10-04T03:04:05.652Z,101616
2017-10-04T03:06:33.924Z,101609
2017-10-04T03:09:02.941Z,101604
2017-10-04T03:11:31.957Z,101604
2017-10-04T03:14:00.170Z,101621
2017-10-04T03:16:28.421Z,101615
2017-10-04T03:18:56.637Z,101612
2017-10-04T03:21:25.623Z,101600
2017-10-04T03:23:53.823Z,101616
2017-10-04T03:26:23.159Z,101614
2017-10-04T03:28:51.343Z,101609
2017-10-04T03:31:19.555Z,101603
2017-10-04T03:33:47.770Z,101583
2017-10-04T03:36:16.002Z,101578
2017-10-04T03:38:44.631Z,101565
2017-10-04T03:41:12.858Z,101575
2017-10-04T03:43:41.851Z,101569
2017-10-04T03:46:10.893Z,101564
2017-10-04T03:48:39.122Z,101573
2017-10-04T03:51:08.130Z,101571
2017-10-04T03:53:36.303Z,101558
2017-10-04T03:56:04.530Z,101559
2017-10-04T03:58:32.750Z,101552
2017-10-04T04:01:01.301Z,101551
2017-10-04T04:03:29.511Z,101546
2017-10-04T04:05:57.821Z,101542
2017-10-04T04:08:25.990Z,101542
2017-10-04T04:10:54.170Z,101529
2017-10-04T04:13:22.343Z,101531
2017-10-04T04:15:50.615Z,101532
2017-10-04T04:18:19.403Z,101513
2017-10-04T04:21:00.120Z,101520
2017-10-04T04:23:29.116Z,101510
2017-10-04T04:26:03.231Z,101508
2017-10-04T04:31:42.758Z,101520
2017-10-04T04:34:22.787Z,101507
2017-10-04T04:36:56.852Z,101513
2017-10-04T04:39:36.811Z,101505
2017-10-04T04:45:26.463Z,101496
2017-10-04T04:47:55.406Z,101499
2017-10-04T04:50:23.610Z,101498
2017-10-04T04:52:51.799Z,101498
2017-10-04T04:55:20.443Z,101504
2017-10-04T04:57:54.576Z,101507
2017-10-04T05:00:29.016Z,101510
2017-10-04T05:02:57.248Z,101503
2017-10-04T05:08:23.102Z,101506
2017-10-04T05:10:51.345Z,101506
2017-10-04T05:13:28.984Z,101500
2017-10-04T05:15:57.598Z,101495
2017-10-04T05:18:26.584Z,101499
2017-10-04T05:20:54.787Z,101493
2017-10-04T05:23:23.007Z,101490
2017-10-04T05:25:51.238Z,101493
2017-10-04T05:28:25.142Z,101490
2017-10-04T05:33:49.696Z,101492
2017-10-04T05:36:23.764Z,101484
2017-10-04T05:38:58.487Z,101473
2017-10-04T05:41:26.683Z,101487
2017-10-04T05:47:11.115Z,101492
2017-10-04T05:52:20.608Z,101507
2017-10-04T05:54:48.850Z,101500
2017-10-04T05:57:23.600Z,101494
2017-10-04T05:59:57.667Z,101502
2017-10-04T06:02:32.043Z,101500
2017-10-04T06:07:56.016Z,101492
2017-10-04T06:10:29.999Z,101494
2017-10-04T06:12:58.586Z,101498
2017-10-04T06:15:33.470Z,101498
2017-10-04T06:18:02.046Z,101490
2017-10-04T06:20:42.019Z,101489
2017-10-04T06:26:25.069Z,101489
2017-10-04T06:31:34.395Z,101488
2017-10-04T06:34:09.000Z,101494
2017-10-04T06:36:43.104Z,101486
2017-10-04T06:42:06.714Z,101485
2017-10-04T06:44:34.939Z,101487
2017-10-04T06:50:03.018Z,101491
2017-10-04T06:52:43.875Z,101472
2017-10-04T06:58:19.271Z,101485
2017-10-04T07:03:44.146Z,101471
2017-10-04T07:06:24.810Z,101463
2017-10-04T07:08:58.801Z,101461
2017-10-04T07:11:27.010Z,101464
2017-10-04T07:14:01.826Z,101452
2017-10-04T07:16:30.066Z,101442
2017-10-04T07:18:58.363Z,101448
2017-10-04T07:21:26.611Z,101448
2017-10-04T07:23:54.891Z,101447
2017-10-04T07:26:23.496Z,101449
2017-10-04T07:28:57.497Z,101449
2017-10-04T07:31:31.794Z,101446
2017-10-04T07:34:00.019Z,101444
2017-10-04T07:39:33.843Z,101440
2017-10-04T07:45:10.343Z,101445
2017-10-04T07:47:39.750Z,101439
2017-10-04T07:50:13.704Z,101439
2017-10-04T07:53:05.961Z,101433
2017-10-04T07:55:34.183Z,101431
2017-10-04T07:58:03.199Z,101428
2017-10-04T08:00:31.425Z,101430
2017-10-04T08:02:59.666Z,101421
2017-10-04T08:05:28.312Z,101445
2017-10-04T08:07:56.576Z,101420
2017-10-04T08:10:24.804Z,101423
2017-10-04T08:12:53.060Z,101426
2017-10-04T08:15:21.254Z,101429
2017-10-04T08:17:49.843Z,101430
2017-10-04T08:20:18.052Z,101425
2017-10-04T08:22:46.271Z,101430
2017-10-04T08:25:14.619Z,101415
2017-10-04T08:27:42.838Z,101418
2017-10-04T08:30:11.210Z,101413
2017-10-04T08:32:39.427Z,101397
2017-10-04T08:35:07.705Z,101413
2017-10-04T08:37:35.921Z,101398
2017-10-04T08:40:04.147Z,101398
2017-10-04T08:42:32.390Z,101409
2017-10-04T08:45:00.618Z,101407
2017-10-04T08:47:46.542Z,101411
2017-10-04T08:50:14.810Z,101400
2017-10-04T08:52:43.090Z,101410
2017-10-04T08:55:11.289Z,101406
2017-10-04T08:57:40.274Z,101390
2017-10-04T09:00:08.631Z,101405
2017-10-04T09:02:36.875Z,101401
2017-10-04T09:05:13.823Z,101397
2017-10-04T09:07:42.067Z,101409
2017-10-04T09:10:11.066Z,101408
2017-10-04T09:12:39.303Z,101415
2017-10-04T09:15:08.063Z,101405
2017-10-04T09:17:36.285Z,101420
2017-10-04T09:20:04.489Z,101409
2017-10-04T09:22:33.067Z,101424
2017-10-04T09:25:01.290Z,101429
2017-10-04T09:27:29.511Z,101439
2017-10-04T09:29:57.764Z,101427
2017-10-04T09:32:26.090Z,101427
2017-10-04T09:34:54.379Z,101419
2017-10-04T09:37:22.643Z,101399
2017-10-04T09:39:51.275Z,101400
2017-10-04T09:42:20.244Z,101385
2017-10-04T09:44:48.461Z,101383
2017-10-04T09:47:16.662Z,101387
2017-10-04T09:49:44.870Z,101386
2017-10-04T09:52:13.061Z,101374
2017-10-04T09:54:41.269Z,101367
2017-10-04T09:57:09.579Z,101360
2017-10-04T09:59:37.803Z,101352
2017-10-04T10:02:06.055Z,101368
2017-10-04T10:04:34.315Z,101359
2017-10-04T10:07:03.116Z,101357
2017-10-04T10:09:31.394Z,101355
2017-10-04T10:11:59.645Z,101342
2017-10-04T10:14:27.906Z,101344
2017-10-04T10:16:56.152Z,101357
2017-10-04T10:19:25.276Z,101349
2017-10-04T10:21:53.562Z,101356
2017-10-04T10:24:22.303Z,101361
2017-10-04T10:26:51.292Z,101351
2017-10-04T10:29:19.528Z,101349
2017-10-04T10:31:47.744Z,101348
2017-10-04T10:34:16.731Z,101342
2017-10-04T10:36:44.925Z,101350
2017-10-04T10:39:13.123Z,101352
2017-10-04T10:41:41.407Z,101360
2017-10-04T10:44:10.508Z,101363
2017-10-04T10:46:38.765Z,101350
2017-10-04T10:49:07.136Z,101368
2017-10-04T10:51:35.402Z,101371
2017-10-04T10:54:03.684Z,101359
2017-10-04T10:56:31.958Z,101349
2017-10-04T10:59:00.357Z,101349
2017-10-04T11:01:28.761Z,101362
2017-10-04T11:03:57.109Z,101350
2017-10-04T11:06:25.369Z,101342
2017-10-04T11:08:53.641Z,101357
2017-10-04T11:11:21.967Z,101365
2017-10-04T11:13:50.326Z,101346
2017-10-04T11:16:18.565Z,101350
2017-10-04T11:18:47.582Z,101333
2017-10-04T11:21:15.800Z,101330
2017-10-04T11:23:44.077Z,101318
2017-10-04T11:26:12.388Z,101314
2017-10-04T11:28:40.708Z,101325
2017-10-04T11:31:09.207Z,101310
2017-10-04T11:33:37.779Z,101310
2017-10-04T11:36:06.876Z,101306
2017-10-04T11:38:35.281Z,101301
2017-10-04T11:41:05.032Z,101296
2017-10-04T11:43:33.279Z,101296
2017-10-04T11:46:01.654Z,101280
2017-10-04T11:48:29.927Z,101285
2017-10-04T11:50:58.118Z,101282
2017-10-04T11:53:26.335Z,101302
2017-10-04T11:55:54.552Z,101295
2017-10-04T11:58:22.778Z,101290
2017-10-04T12:00:51.003Z,101290
2017-10-04T12:03:19.385Z,101289
2017-10-04T12:05:48.061Z,101271
2017-10-04T12:08:16.294Z,101270
2017-10-04T12:10:44.773Z,101261
2017-10-04T12:13:13.028Z,101265
2017-10-04T12:15:41.267Z,101263
2017-10-04T12:18:09.544Z,101249
2017-10-04T12:20:37.909Z,101261
2017-10-04T12:23:06.904Z,101241
2017-10-04T12:25:35.903Z,101253
2017-10-04T12:28:04.153Z,101230
2017-10-04T12:30:32.395Z,101238
2017-10-04T12:33:00.648Z,101213
2017-10-04T12:35:28.971Z,101229
2017-10-04T12:37:57.963Z,101213
2017-10-04T12:40:26.284Z,101220
2017-10-04T12:42:54.594Z,101231
2017-10-04T12:45:22.812Z,101239
2017-10-04T12:47:51.092Z,101231
2017-10-04T12:50:20.057Z,101225
2017-10-04T12:52:48.323Z,101211
2017-10-04T12:55:16.688Z,101224
2017-10-04T12:57:44.923Z,101204
2017-10-04T13:00:13.294Z,101215
2017-10-04T13:02:41.634Z,101213
2017-10-04T13:05:09.880Z,101210
2017-10-04T13:07:38.108Z,101198
2017-10-04T13:10:07.106Z,101210
2017-10-04T13:12:36.143Z,101188
2017-10-04T13:15:04.396Z,101192
2017-10-04T13:17:32.713Z,101183
2017-10-04T13:20:00.952Z,101176
2017-10-04T13:22:29.160Z,101176
2017-10-04T13:24:57.439Z,101178
2017-10-04T13:27:25.666Z,101180
2017-10-04T13:29:53.945Z,101174
2017-10-04T13:32:22.268Z,101171
2017-10-04T13:34:50.551Z,101178
2017-10-04T13:37:18.772Z,101178
2017-10-04T13:39:47.025Z,101161
2017-10-04T13:42:16.080Z,101163
2017-10-04T13:44:44.311Z,101159
2017-10-04T13:47:12.607Z,101163
2017-10-04T13:49:40.876Z,101166
2017-10-04T13:52:09.192Z,101151
2017-10-04T13:54:37.472Z,101153
2017-10-04T13:57:05.742Z,101150
2017-10-04T13:59:33.968Z,101158
2017-10-04T14:02:02.400Z,101151
2017-10-04T14:04:30.622Z,101137
2017-10-04T14:06:58.858Z,101142
2017-10-04T14:09:27.138Z,101132
2017-10-04T14:11:56.124Z,101118
2017-10-04T14:14:24.391Z,101111
2017-10-04T14:16:52.617Z,101112
2017-10-04T14:19:20.896Z,101114
2017-10-04T14:21:49.135Z,101106
2017-10-04T14:24:17.596Z,101114
2017-10-04T14:26:45.827Z,101106
2017-10-04T14:29:14.478Z,101105
2017-10-04T14:31:42.751Z,101090
2017-10-04T14:34:11.203Z,101088
2017-10-04T14:36:39.445Z,101101
2017-10-04T14:39:08.683Z,101094
2017-10-04T14:41:37.347Z,101092
2017-10-04T14:44:09.496Z,101102
2017-10-04T14:46:38.094Z,101091
2017-10-04T14:49:06.513Z,101087
2017-10-04T14:51:35.508Z,101089
2017-10-04T14:54:03.928Z,101090
2017-10-04T14:56:32.613Z,101074
2017-10-04T14:59:01.089Z,101082
2017-10-04T15:01:29.410Z,101077
2017-10-04T15:03:58.383Z,101091
2017-10-04T15:06:26.990Z,101077
2017-10-04T15:08:58.810Z,101068
2017-10-04T15:11:27.432Z,101054
2017-10-04T15:13:56.460Z,101070
2017-10-04T15:16:24.756Z,101060
2017-10-04T15:18:52.983Z,101064
2017-10-04T15:21:22.481Z,101060
2017-10-04T15:23:51.473Z,101061
2017-10-04T15:26:20.561Z,101076
2017-10-04T15:28:49.720Z,101058
2017-10-04T15:31:17.903Z,101061
2017-10-04T15:33:46.209Z,101057
2017-10-04T15:36:15.200Z,101063
2017-10-04T15:38:44.195Z,101055
2017-10-04T15:41:13.192Z,101059
2017-10-04T15:43:42.214Z,101061
2017-10-04T15:46:10.428Z,101046
2017-10-04T15:48:39.512Z,101055
2017-10-04T15:51:07.697Z,101054
2017-10-04T15:53:35.906Z,101038
2017-10-04T15:56:04.132Z,101048
2017-10-04T15:58:32.419Z,101036
2017-10-04T16:01:00.672Z,101033
2017-10-04T16:03:28.873Z,101028
2017-10-04T16:05:57.132Z,101029
2017-10-04T16:08:25.415Z,101027
2017-10-04T16:10:53.707Z,101028
2017-10-04T16:13:22.047Z,101011
2017-10-04T16:15:50.366Z,101035
2017-10-04T16:18:18.610Z,101028
2017-10-04T16:20:47.780Z,101027
2017-10-04T16:23:16.852Z,101025
2017-10-04T16:25:45.591Z,101016
2017-10-04T16:28:13.842Z,101021
2017-10-04T16:30:42.088Z,101013
2017-10-04T16:33:10.340Z,101025
2017-10-04T16:35:38.557Z,101012
2017-10-04T16:38:06.867Z,101016
2017-10-04T16:40:35.973Z,100996
2017-10-04T16:43:04.406Z,100997
2017-10-04T16:45:32.638Z,101003
2017-10-04T16:48:00.945Z,100995
2017-10-04T16:50:29.202Z,101003
2017-10-04T16:52:57.652Z,100997
2017-10-04T16:55:25.952Z,100989
2017-10-04T16:57:55.003Z,100990
2017-10-04T17:00:23.260Z,101000
2017-10-04T17:02:51.504Z,100990
2017-10-04T17:05:20.540Z,100991
2017-10-04T17:07:50.217Z,100982
2017-10-04T17:10:20.418Z,100989
2017-10-04T17:12:49.424Z,100999
2017-10-04T17:15:17.659Z,100998
2017-10-04T17:17:45.990Z,100995
2017-10-04T17:20:14.544Z,100990
2017-10-04T17:22:46.043Z,100971
2017-10-04T17:25:14.544Z,100979
2017-10-04T17:27:43.007Z,100987
2017-10-04T17:30:11.430Z,100999
2017-10-04T17:32:41.286Z,100999
2017-10-04T17:35:09.559Z,100988
2017-10-04T17:37:38.061Z,100996
2017-10-04T17:40:07.553Z,100999
2017-10-04T17:42:35.847Z,101001
2017-10-04T17:45:04.043Z,101009
2017-10-04T17:47:33.619Z,100999
2017-10-04T17:50:01.856Z,100993
2017-10-04T17:52:30.065Z,101001
2017-10-04T17:54:58.368Z,101007
2017-10-04T17:57:26.632Z,101005
2017-10-04T17:59:54.892Z,100995
2017-10-04T18:02:23.374Z,100985
2017-10-04T18:04:52.641Z,100995
2017-10-04T18:07:20.858Z,100999
2017-10-04T18:09:50.141Z,100978
2017-10-04T18:12:18.605Z,100964
2017-10-04T18:14:46.836Z,100972
2017-10-04T18:17:15.975Z,100980
2017-10-04T18:19:44.314Z,100966
2017-10-04T18:22:13.373Z,100968
2017-10-04T18:24:41.752Z,100973
2017-10-04T18:27:10.119Z,100972
2017-10-04T18:29:40.700Z,100976
2017-10-04T18:32:09.759Z,100975
2017-10-04T18:34:38.105Z,100967
2017-10-04T18:37:07.634Z,100971
2017-10-04T18:39:36.081Z,100978
2017-10-04T18:42:04.288Z,100984
2017-10-04T18:44:33.320Z,100979
2017-10-04T18:47:01.520Z,100974
2017-10-04T18:49:31.860Z,100974
2017-10-04T18:52:00.125Z,100978
2017-10-04T18:54:28.366Z,100985
2017-10-04T18:56:57.388Z,100981
2017-10-04T18:59:25.599Z,100969
2017-10-04T19:01:54.624Z,100972
2017-10-04T19:04:22.915Z,100972
2017-10-04T19:06:51.191Z,100968
2017-10-04T19:09:19.515Z,100967
2017-10-04T19:11:48.661Z,100980
2017-10-04T19:14:17.094Z,100971
2017-10-04T19:16:46.176Z,100971
2017-10-04T19:19:14.399Z,100979
2017-10-04T19:21:43.419Z,100972
2017-10-04T19:24:11.870Z,100979
2017-10-04T19:26:40.184Z,100982
2017-10-04T19:29:08.397Z,100970
2017-10-04T19:31:36.642Z,100960
2017-10-04T19:34:05.186Z,100956
2017-10-04T19:36:33.453Z,100940
2017-10-04T19:39:01.734Z,100947
2017-10-04T19:41:30.057Z,100939
2017-10-04T19:43:58.376Z,100942
2017-10-04T19:46:30.366Z,100933
2017-10-04T19:48:58.606Z,100933
2017-10-04T19:51:27.651Z,100931
2017-10-04T19:53:55.869Z,100924
2017-10-04T19:56:24.129Z,100938
2017-10-04T19:58:53.110Z,100929
2017-10-04T20:01:21.352Z,100940
2017-10-04T20:03:49.591Z,100953
2017-10-04T20:06:18.034Z,100948
2017-10-04T20:08:46.266Z,100950
2017-10-04T20:11:14.495Z,100968
2017-10-04T20:13:42.681Z,100957
2017-10-04T20:16:10.955Z,100952
2017-10-04T20:18:40.049Z,100945
2017-10-04T20:21:08.272Z,100949
2017-10-04T20:23:36.492Z,100951
2017-10-04T20:26:04.682Z,100935
2017-10-04T20:28:38.351Z,100922
2017-10-04T20:31:07.371Z,100942
2017-10-04T20:33:36.342Z,100936
2017-10-04T20:36:04.567Z,100935
2017-10-04T20:38:32.788Z,100939
2017-10-04T20:41:01.111Z,100943
2017-10-04T20:43:29.314Z,100949
2017-10-04T20:45:57.559Z,100956
2017-10-04T20:48:25.750Z,100941
2017-10-04T20:50:53.996Z,100947
2017-10-04T20:53:23.439Z,100950
2017-10-04T20:55:52.306Z,100931
2017-10-04T20:58:20.531Z,100929
2017-10-04T21:00:48.764Z,100941
2017-10-04T21:03:17.064Z,100921
2017-10-04T21:05:45.365Z,100920
2017-10-04T21:08:14.471Z,100933
2017-10-04T21:10:43.815Z,100931
2017-10-04T21:13:12.035Z,100927
2017-10-04T21:15:41.017Z,100934
2017-10-04T21:18:09.254Z,100919
2017-10-04T21:20:37.436Z,100920
2017-10-04T21:23:06.868Z,100926
2017-10-04T21:25:35.173Z,100908
2017-10-04T21:28:03.396Z,100903
2017-10-04T21:30:32.544Z,100901
2017-10-04T21:33:01.624Z,100900
2017-10-04T21:35:30.686Z,100887
2017-10-04T21:37:58.959Z,100898
2017-10-04T21:40:27.295Z,100896
2017-10-04T21:42:56.336Z,100909
2017-10-04T21:45:24.571Z,100909
2017-10-04T21:47:52.800Z,100909
2017-10-04T21:50:21.129Z,100907
2017-10-04T21:52:49.477Z,100899
2017-10-04T21:55:18.543Z,100911
2017-10-04T21:57:46.832Z,100914
2017-10-04T22:00:15.157Z,100902
2017-10-04T22:02:43.504Z,100893
2017-10-04T22:05:12.396Z,100892
2017-10-04T22:07:40.680Z,100878
2017-10-04T22:10:09.015Z,100871
2017-10-04T22:12:37.355Z,100871
2017-10-04T22:15:05.703Z,100879
2017-10-04T22:17:34.016Z,100867
2017-10-04T22:20:02.294Z,100859
2017-10-04T22:22:31.129Z,100866
2017-10-04T22:24:59.594Z,100865
2017-10-04T22:27:27.968Z,100873
2017-10-04T22:29:57.014Z,100866
2017-10-04T22:32:25.320Z,100859
2017-10-04T22:34:53.587Z,100855
2017-10-04T22:37:21.856Z,100848
2017-10-04T22:39:50.475Z,100829
2017-10-04T22:42:19.521Z,100830
2017-10-04T22:44:47.776Z,100814
2017-10-04T22:47:16.077Z,100824
2017-10-04T22:49:44.381Z,100818
2017-10-04T22:52:12.625Z,100819
2017-10-04T22:54:40.873Z,100810
2017-10-04T22:57:09.144Z,100808
2017-10-04T22:59:37.562Z,100798
2017-10-04T23:02:05.879Z,100794
2017-10-04T23:04:34.911Z,100799
2017-10-04T23:07:03.679Z,100802
2017-10-04T23:09:31.974Z,100793
2017-10-04T23:12:00.249Z,100794
2017-10-04T23:14:28.878Z,100790
2017-10-04T23:16:57.198Z,100792
2017-10-04T23:19:25.461Z,100789
2017-10-04T23:21:54.479Z,100782
2017-10-04T23:24:22.817Z,100789
2017-10-04T23:26:51.113Z,100782
2017-10-04T23:29:19.413Z,100781
2017-10-04T23:31:47.756Z,100767
2017-10-04T23:34:16.790Z,100766
2017-10-04T23:36:45.102Z,100759
2017-10-04T23:39:13.391Z,100750
2017-10-04T23:41:41.717Z,100760
2017-10-04T23:44:10.077Z,100755
2017-10-04T23:46:38.379Z,100746
2017-10-04T23:49:06.708Z,100765
2017-10-04T23:51:36.091Z,100751
2017-10-04T23:54:04.397Z,100750
2017-10-04T23:56:32.850Z,100743
2017-10-04T23:59:01.113Z,100723
